createdAt,value
2023-04-30T00:01:05.983Z,101528.05
2023-04-30T00:03:56.295Z,101529.66
2023-04-30T00:06:46.495Z,101529.50
2023-04-30T00:09:36.664Z,101529.06
2023-04-30T00:12:26.978Z,101526.39
2023-04-30T00:15:17.021Z,101524.88
2023-04-30T00:18:07.440Z,101525.75
2023-04-30T00:20:58.164Z,101528.45
2023-04-30T00:23:48.604Z,101520.29
2023-04-30T00:26:39.923Z,101520.91
2023-04-30T00:29:30.087Z,101519.02
2023-04-30T00:32:20.561Z,101519.13
2023-04-30T00:35:13.872Z,101518.27
2023-04-30T00:38:10.655Z,101519.06
2023-04-30T00:41:06.036Z,101519.64
2023-04-30T00:44:21.029Z,101523.67
2023-04-30T00:47:19.802Z,101523.08
2023-04-30T00:50:11.361Z,101520.77
2023-04-30T00:53:07.345Z,101518.75
2023-04-30T00:56:00.399Z,101520.59
2023-04-30T00:58:51.603Z,101518.84
2023-04-30T01:01:45.355Z,101513.83
2023-04-30T01:04:41.827Z,101513.58
2023-04-30T01:07:32.820Z,101512.34
2023-04-30T01:10:24.428Z,101516.20
2023-04-30T01:13:19.283Z,101513.29
2023-04-30T01:16:14.187Z,101504.07
2023-04-30T01:19:07.305Z,101507.41
2023-04-30T01:21:58.727Z,101506.95
2023-04-30T01:25:00.564Z,101503.08
2023-04-30T01:28:02.911Z,101502.79
2023-04-30T01:30:53.400Z,101495.83
2023-04-30T01:33:44.030Z,101495.25
2023-04-30T01:36:45.776Z,101495.06
2023-04-30T01:39:48.314Z,101490.25
2023-04-30T01:42:43.050Z,101485.95
2023-04-30T01:45:42.994Z,101481.84
2023-04-30T01:48:41.252Z,101479.70
2023-04-30T01:51:33.762Z,101481.98
2023-04-30T01:54:34.158Z,101477.42
2023-04-30T01:57:30.205Z,101475.48
2023-04-30T02:00:20.794Z,101472.64
2023-04-30T02:03:11.200Z,101470.21
2023-04-30T02:06:01.761Z,101465.17
2023-04-30T02:08:52.717Z,101460.50
2023-04-30T02:11:43.170Z,101459.74
2023-04-30T02:18:26.276Z,101463.27
2023-04-30T02:21:25.513Z,101457.66
2023-04-30T02:24:16.472Z,101452.50
2023-04-30T02:27:09.002Z,101452.88
2023-04-30T02:29:59.906Z,101450.96
2023-04-30T02:32:50.139Z,101450.44
2023-04-30T02:35:42.296Z,101445.56
2023-04-30T02:38:32.546Z,101441.63
2023-04-30T02:41:22.968Z,101437.84
2023-04-30T02:44:13.204Z,101437.70
2023-04-30T02:47:03.718Z,101436.45
2023-04-30T02:49:55.070Z,101434.90
2023-04-30T02:52:46.023Z,101433.62
2023-04-30T02:55:36.313Z,101431.87
2023-04-30T02:58:27.572Z,101430.55
2023-04-30T03:01:17.923Z,101432.92
2023-04-30T03:04:08.108Z,101430.16
2023-04-30T03:06:58.334Z,101430.29
2023-04-30T03:09:48.821Z,101427.30
2023-04-30T03:12:39.234Z,101428.02
2023-04-30T03:15:29.512Z,101427.09
2023-04-30T03:18:20.143Z,101432.33
2023-04-30T03:21:10.943Z,101432.92
2023-04-30T03:24:01.062Z,101431.23
2023-04-30T03:26:51.893Z,101431.89
2023-04-30T03:29:42.406Z,101429.59
2023-04-30T03:32:32.997Z,101429.66
2023-04-30T03:35:23.439Z,101429.23
2023-04-30T03:38:13.718Z,101424.94
2023-04-30T03:41:04.059Z,101424.08
2023-04-30T03:43:54.689Z,101426.81
2023-04-30T03:46:45.093Z,101420.62
2023-04-30T03:49:36.208Z,101417.76
2023-04-30T03:52:28.584Z,101413.65
2023-04-30T03:55:24.044Z,101412.77
2023-04-30T03:58:34.088Z,101409.60
2023-04-30T04:01:56.630Z,101408.79
2023-04-30T04:04:55.553Z,101405.11
2023-04-30T04:08:25.139Z,101408.62
2023-04-30T04:15:21.139Z,101409.02
2023-04-30T04:18:39.287Z,101408.44
2023-04-30T04:21:57.376Z,101407.51
2023-04-30T04:25:09.534Z,101404.25
2023-04-30T04:31:42.920Z,101398.23
2023-04-30T04:34:47.273Z,101398.84
2023-04-30T04:37:43.639Z,101398.23
2023-04-30T04:40:43.968Z,101400.64
2023-04-30T04:44:06.999Z,101399.52
2023-04-30T04:47:04.428Z,101395.88
2023-04-30T04:50:23.647Z,101394.70
2023-04-30T04:53:44.420Z,101390.48
2023-04-30T04:56:37.159Z,101389.95
2023-04-30T04:59:27.962Z,101394.05
2023-04-30T05:02:18.448Z,101393.67
2023-04-30T05:05:27.320Z,101389.32
2023-04-30T05:08:27.589Z,101384.97
2023-04-30T05:11:27.120Z,101385.84
2023-04-30T05:14:39.082Z,101379.23
2023-04-30T05:17:33.101Z,101385.14
2023-04-30T05:20:45.963Z,101387.02
2023-04-30T05:23:46.790Z,101389.89
2023-04-30T05:26:45.945Z,101390.23
2023-04-30T05:30:17.213Z,101388.00
2023-04-30T05:33:33.135Z,101389.62
2023-04-30T05:36:23.268Z,101386.70
2023-04-30T05:42:30.340Z,101381.67
2023-04-30T05:45:22.131Z,101382.98
2023-04-30T05:48:12.415Z,101382.79
2023-04-30T05:51:23.542Z,101385.05
2023-04-30T05:54:32.015Z,101387.52
2023-04-30T05:57:30.014Z,101392.05
2023-04-30T06:00:44.672Z,101393.02
2023-04-30T06:04:12.091Z,101393.50
2023-04-30T06:07:13.277Z,101395.20
2023-04-30T06:13:34.743Z,101399.05
2023-04-30T06:16:39.391Z,101400.23
2023-04-30T06:19:29.692Z,101396.23
2023-04-30T06:22:27.667Z,101399.92
2023-04-30T06:25:17.841Z,101401.73
2023-04-30T06:28:14.662Z,101405.50
2023-04-30T06:34:31.801Z,101405.88
2023-04-30T06:37:27.095Z,101408.16
2023-04-30T06:43:34.840Z,101401.58
2023-04-30T06:46:28.574Z,101402.91
2023-04-30T06:49:42.477Z,101410.60
2023-04-30T06:52:36.091Z,101414.52
2023-04-30T06:58:57.865Z,101410.75
2023-04-30T07:05:07.403Z,101412.41
2023-04-30T07:08:15.699Z,101410.04
2023-04-30T07:11:21.657Z,101411.08
2023-04-30T07:14:22.155Z,101409.21
2023-04-30T07:17:22.331Z,101409.27
2023-04-30T07:20:18.349Z,101407.28
2023-04-30T07:23:10.245Z,101410.38
2023-04-30T07:26:06.027Z,101410.20
2023-04-30T07:29:12.158Z,101417.14
2023-04-30T07:32:11.188Z,101410.91
2023-04-30T07:35:15.680Z,101411.94
2023-04-30T07:38:19.109Z,101412.96
2023-04-30T07:44:39.370Z,101416.09
2023-04-30T07:47:40.396Z,101417.58
2023-04-30T07:50:36.733Z,101416.13
2023-04-30T07:53:33.771Z,101422.09
2023-04-30T07:56:31.511Z,101424.64
2023-04-30T07:59:32.591Z,101427.25
2023-04-30T08:02:31.541Z,101429.45
2023-04-30T08:05:25.640Z,101426.77
2023-04-30T08:08:24.013Z,101429.34
2023-04-30T08:11:19.670Z,101428.98
2023-04-30T08:14:13.043Z,101427.16
2023-04-30T08:17:14.118Z,101420.79
2023-04-30T08:20:14.063Z,101424.65
2023-04-30T08:23:07.216Z,101426.13
2023-04-30T08:26:06.938Z,101424.27
2023-04-30T08:32:39.380Z,101425.55
2023-04-30T08:35:38.756Z,101420.85
2023-04-30T08:38:41.325Z,101419.98
2023-04-30T08:41:54.490Z,101418.30
2023-04-30T08:44:55.151Z,101426.05
2023-04-30T08:47:52.900Z,101429.88
2023-04-30T08:50:45.546Z,101427.25
2023-04-30T08:53:42.062Z,101421.72
2023-04-30T08:56:42.761Z,101414.44
2023-04-30T08:59:46.270Z,101412.20
2023-04-30T09:02:41.592Z,101410.46
2023-04-30T09:05:43.031Z,101406.84
2023-04-30T09:08:47.827Z,101402.34
2023-04-30T09:11:51.132Z,101397.02
2023-04-30T09:14:58.353Z,101401.02
2023-04-30T09:17:51.551Z,101390.34
2023-04-30T09:20:56.449Z,101389.08
2023-04-30T09:24:00.299Z,101385.95
2023-04-30T09:26:50.931Z,101385.63
2023-04-30T09:29:41.202Z,101381.28
2023-04-30T09:32:31.389Z,101385.05
2023-04-30T09:35:31.430Z,101383.27
2023-04-30T09:38:28.833Z,101386.61
2023-04-30T09:41:26.430Z,101380.86
2023-04-30T09:44:32.699Z,101383.49
2023-04-30T09:47:23.111Z,101386.39
2023-04-30T09:50:14.888Z,101386.63
2023-04-30T09:53:09.138Z,101390.22
2023-04-30T09:55:59.844Z,101392.52
2023-04-30T09:58:51.775Z,101388.34
2023-04-30T10:01:42.224Z,101394.52
2023-04-30T10:04:35.221Z,101390.32
2023-04-30T10:07:26.428Z,101397.96
2023-04-30T10:10:16.836Z,101392.92
2023-04-30T10:13:11.169Z,101393.30
2023-04-30T10:16:05.802Z,101396.77
2023-04-30T10:18:59.473Z,101398.88
2023-04-30T10:21:50.285Z,101404.57
2023-04-30T10:24:40.960Z,101404.30
2023-04-30T10:27:31.601Z,101410.81
2023-04-30T10:30:23.168Z,101411.55
2023-04-30T10:33:17.402Z,101412.18
2023-04-30T10:36:09.377Z,101415.61
2023-04-30T10:39:00.106Z,101414.45
2023-04-30T10:41:50.270Z,101409.04
2023-04-30T10:44:40.768Z,101409.77
2023-04-30T10:47:31.594Z,101406.54
2023-04-30T10:50:25.312Z,101406.69
2023-04-30T10:53:17.253Z,101405.52
2023-04-30T10:56:10.465Z,101403.45
2023-04-30T10:59:02.485Z,101395.64
2023-04-30T11:02:00.189Z,101390.27
2023-04-30T11:05:07.678Z,101393.13
2023-04-30T11:07:59.778Z,101389.41
2023-04-30T11:11:00.279Z,101382.21
2023-04-30T11:14:00.348Z,101374.13
2023-04-30T11:16:52.155Z,101365.63
2023-04-30T11:19:49.908Z,101360.73
2023-04-30T11:22:40.064Z,101359.78
2023-04-30T11:25:40.626Z,101353.73
2023-04-30T11:28:31.941Z,101350.13
2023-04-30T11:31:22.338Z,101343.82
2023-04-30T11:34:13.753Z,101339.68
2023-04-30T11:37:04.633Z,101338.02
2023-04-30T11:39:55.063Z,101330.48
2023-04-30T11:42:46.703Z,101329.02
2023-04-30T11:45:36.923Z,101328.13
2023-04-30T11:48:31.709Z,101331.91
2023-04-30T11:51:22.568Z,101337.08
2023-04-30T11:54:16.161Z,101346.58
2023-04-30T11:57:06.559Z,101350.30
2023-04-30T11:59:57.018Z,101351.30
2023-04-30T12:02:48.212Z,101357.94
2023-04-30T12:05:42.072Z,101362.73
2023-04-30T12:08:33.030Z,101374.13
2023-04-30T12:11:25.643Z,101375.58
2023-04-30T12:14:16.229Z,101383.10
2023-04-30T12:17:06.533Z,101381.40
2023-04-30T12:19:56.875Z,101375.77
2023-04-30T12:22:47.389Z,101374.19
2023-04-30T12:25:44.052Z,101370.41
2023-04-30T12:28:35.628Z,101365.96
2023-04-30T12:31:26.020Z,101362.04
2023-04-30T12:34:17.298Z,101365.80
2023-04-30T12:37:07.907Z,101363.27
2023-04-30T12:39:58.408Z,101350.02
2023-04-30T12:42:49.416Z,101332.10
2023-04-30T12:45:51.604Z,101318.37
2023-04-30T12:48:46.030Z,101315.16
2023-04-30T12:51:36.369Z,101311.91
2023-04-30T12:54:30.266Z,101312.45
2023-04-30T12:57:20.752Z,101306.14
2023-04-30T13:00:11.893Z,101309.13
2023-04-30T13:03:02.219Z,101309.33
2023-04-30T13:05:53.061Z,101309.13
2023-04-30T13:08:57.119Z,101317.11
2023-04-30T13:11:48.569Z,101315.54
2023-04-30T13:14:39.182Z,101312.36
2023-04-30T13:17:29.531Z,101305.52
2023-04-30T13:23:53.415Z,101308.73
2023-04-30T13:26:45.468Z,101308.97
2023-04-30T13:29:35.794Z,101316.78
2023-04-30T13:32:26.115Z,101325.83
2023-04-30T13:35:16.607Z,101317.02
2023-04-30T13:38:06.915Z,101319.38
2023-04-30T13:40:57.234Z,101311.58
2023-04-30T13:43:48.646Z,101305.11
2023-04-30T13:46:38.992Z,101293.96
2023-04-30T13:49:29.354Z,101291.92
2023-04-30T13:52:20.214Z,101301.36
2023-04-30T13:55:11.246Z,101311.23
2023-04-30T13:58:01.630Z,101305.44
2023-04-30T14:00:52.336Z,101310.29
2023-04-30T14:03:42.749Z,101306.35
2023-04-30T14:06:33.188Z,101307.39
2023-04-30T14:09:23.828Z,101309.40
2023-04-30T14:12:14.312Z,101312.02
2023-04-30T14:15:05.934Z,101316.16
2023-04-30T14:17:56.215Z,101314.93
2023-04-30T14:20:46.423Z,101317.61
2023-04-30T14:23:36.782Z,101315.59
2023-04-30T14:26:26.980Z,101312.98
2023-04-30T14:29:20.456Z,101316.52
2023-04-30T14:32:12.031Z,101317.17
2023-04-30T14:35:02.803Z,101310.14
2023-04-30T14:37:53.233Z,101313.00
2023-04-30T14:40:44.144Z,101310.02
2023-04-30T14:43:34.383Z,101309.14
2023-04-30T14:46:24.698Z,101309.88
2023-04-30T14:49:15.170Z,101307.20
2023-04-30T14:52:05.423Z,101304.36
2023-04-30T14:54:56.211Z,101301.60
2023-04-30T14:57:46.527Z,101297.55
2023-04-30T15:00:36.903Z,101291.09
2023-04-30T15:03:27.257Z,101287.71
2023-04-30T15:06:18.049Z,101285.09
2023-04-30T15:09:08.343Z,101280.13
2023-04-30T15:11:58.699Z,101272.00
2023-04-30T15:14:48.974Z,101265.58
2023-04-30T15:17:39.303Z,101265.08
2023-04-30T15:20:29.548Z,101263.90
2023-04-30T15:23:19.829Z,101258.89
2023-04-30T15:26:10.252Z,101254.95
2023-04-30T15:29:00.465Z,101256.16
2023-04-30T15:31:52.111Z,101253.65
2023-04-30T15:34:45.328Z,101248.61
2023-04-30T15:37:35.822Z,101246.36
2023-04-30T15:40:26.160Z,101239.52
2023-04-30T15:43:19.494Z,101245.23
2023-04-30T15:46:09.906Z,101254.45
2023-04-30T15:49:00.367Z,101256.45
2023-04-30T15:51:50.460Z,101252.02
2023-04-30T15:54:41.316Z,101249.23
2023-04-30T15:57:31.513Z,101247.56
2023-04-30T16:00:23.527Z,101246.33
2023-04-30T16:03:14.710Z,101247.15
2023-04-30T16:06:05.076Z,101244.52
2023-04-30T16:08:55.364Z,101243.39
2023-04-30T16:11:45.498Z,101246.27
2023-04-30T16:14:35.709Z,101249.16
2023-04-30T16:17:26.949Z,101258.86
2023-04-30T16:20:20.539Z,101260.80
2023-04-30T16:23:11.317Z,101263.40
2023-04-30T16:26:01.666Z,101264.72
2023-04-30T16:28:51.957Z,101272.13
2023-04-30T16:31:42.826Z,101281.73
2023-04-30T16:34:33.064Z,101285.23
2023-04-30T16:37:23.305Z,101282.65
2023-04-30T16:40:17.160Z,101281.82
2023-04-30T16:43:08.238Z,101287.59
2023-04-30T16:45:58.511Z,101291.61
2023-04-30T16:48:49.544Z,101291.25
2023-04-30T16:51:40.098Z,101294.11
2023-04-30T16:54:30.340Z,101288.44
2023-04-30T16:57:21.251Z,101284.73
2023-04-30T17:00:14.251Z,101284.75
2023-04-30T17:03:05.624Z,101286.96
2023-04-30T17:05:56.020Z,101287.66
2023-04-30T17:08:46.247Z,101283.27
2023-04-30T17:11:36.507Z,101283.69
2023-04-30T17:14:26.836Z,101284.21
2023-04-30T17:17:17.212Z,101281.63
2023-04-30T17:20:08.693Z,101284.63
2023-04-30T17:22:59.425Z,101286.06
2023-04-30T17:25:49.622Z,101285.43
2023-04-30T17:28:40.068Z,101283.86
2023-04-30T17:31:31.645Z,101285.20
2023-04-30T17:34:21.894Z,101290.17
2023-04-30T17:37:12.180Z,101292.52
2023-04-30T17:40:02.375Z,101287.33
2023-04-30T17:42:52.625Z,101282.77
2023-04-30T17:45:44.363Z,101282.42
2023-04-30T17:48:34.718Z,101280.33
2023-04-30T17:51:29.430Z,101280.86
2023-04-30T17:54:20.199Z,101285.48
2023-04-30T17:57:10.371Z,101285.95
2023-04-30T18:00:01.369Z,101285.13
2023-04-30T18:02:52.381Z,101288.52
2023-04-30T18:05:42.762Z,101285.94
2023-04-30T18:08:34.059Z,101285.08
2023-04-30T18:11:24.385Z,101292.20
2023-04-30T18:14:14.689Z,101304.44
2023-04-30T18:17:05.055Z,101306.31
2023-04-30T18:19:55.532Z,101312.01
2023-04-30T18:22:46.009Z,101307.23
2023-04-30T18:25:37.173Z,101308.20
2023-04-30T18:28:27.783Z,101311.04
2023-04-30T18:31:18.214Z,101320.27
2023-04-30T18:34:08.583Z,101316.44
2023-04-30T18:36:59.080Z,101317.30
2023-04-30T18:39:51.373Z,101320.92
2023-04-30T18:42:41.626Z,101328.20
2023-04-30T18:45:32.084Z,101329.64
2023-04-30T18:48:23.150Z,101334.48
2023-04-30T18:51:13.462Z,101331.04
2023-04-30T18:54:04.039Z,101336.77
2023-04-30T18:56:54.580Z,101333.98
2023-04-30T18:59:45.208Z,101332.55
2023-04-30T19:02:36.167Z,101334.38
2023-04-30T19:05:26.715Z,101339.29
2023-04-30T19:08:17.040Z,101340.55
2023-04-30T19:11:07.643Z,101348.41
2023-04-30T19:13:58.684Z,101353.06
2023-04-30T19:16:49.179Z,101355.11
2023-04-30T19:19:39.808Z,101356.60
2023-04-30T19:22:30.113Z,101361.46
2023-04-30T19:25:24.062Z,101366.98
2023-04-30T19:28:15.713Z,101373.11
2023-04-30T19:31:06.163Z,101376.77
2023-04-30T19:33:56.438Z,101379.42
2023-04-30T19:36:47.712Z,101381.91
2023-04-30T19:39:38.098Z,101385.54
2023-04-30T19:42:30.371Z,101378.70
2023-04-30T19:45:21.367Z,101380.67
2023-04-30T19:48:13.466Z,101379.04
2023-04-30T19:51:05.703Z,101376.57
2023-04-30T19:53:57.514Z,101380.06
2023-04-30T19:56:47.826Z,101387.50
2023-04-30T19:59:38.707Z,101386.20
2023-04-30T20:02:29.317Z,101387.52
2023-04-30T20:05:20.092Z,101392.90
2023-04-30T20:08:10.960Z,101400.45
2023-04-30T20:11:03.253Z,101404.98
2023-04-30T20:13:55.512Z,101408.11
2023-04-30T20:16:46.398Z,101411.44
2023-04-30T20:19:37.221Z,101415.58
2023-04-30T20:22:27.655Z,101422.13
2023-04-30T20:25:17.904Z,101422.91
2023-04-30T20:28:08.274Z,101430.56
2023-04-30T20:30:58.730Z,101433.80
2023-04-30T20:33:49.491Z,101436.96
2023-04-30T20:36:40.133Z,101438.04
2023-04-30T20:39:30.449Z,101436.75
2023-04-30T20:42:20.821Z,101435.46
2023-04-30T20:45:12.370Z,101438.16
2023-04-30T20:48:03.021Z,101441.29
2023-04-30T20:50:53.346Z,101445.53
2023-04-30T20:53:43.638Z,101445.13
2023-04-30T20:56:33.834Z,101444.34
2023-04-30T20:59:24.152Z,101447.81
2023-04-30T21:02:14.930Z,101447.44
2023-04-30T21:05:06.241Z,101449.19
2023-04-30T21:08:01.940Z,101455.38
2023-04-30T21:11:01.973Z,101456.80
2023-04-30T21:13:52.303Z,101451.25
2023-04-30T21:16:43.903Z,101448.59
2023-04-30T21:19:34.218Z,101450.30
2023-04-30T21:22:24.743Z,101448.86
2023-04-30T21:25:15.057Z,101449.70
2023-04-30T21:28:05.514Z,101447.27
2023-04-30T21:30:55.990Z,101447.13
2023-04-30T21:33:46.525Z,101451.17
2023-04-30T21:36:39.866Z,101454.67
2023-04-30T21:39:30.680Z,101453.73
2023-04-30T21:42:20.909Z,101453.09
2023-04-30T21:45:11.600Z,101456.33
2023-04-30T21:48:02.295Z,101451.39
2023-04-30T21:50:52.720Z,101451.14
2023-04-30T21:53:43.263Z,101451.20
2023-04-30T21:56:33.657Z,101450.86
2023-04-30T21:59:24.958Z,101451.95
2023-04-30T22:02:23.990Z,101451.77
2023-04-30T22:05:15.161Z,101455.69
2023-04-30T22:08:05.837Z,101451.33
2023-04-30T22:10:58.571Z,101455.83
2023-04-30T22:13:48.905Z,101459.81
2023-04-30T22:16:39.199Z,101457.64
2023-04-30T22:19:29.869Z,101458.94
2023-04-30T22:22:20.168Z,101463.14
2023-04-30T22:25:11.464Z,101465.35
2023-04-30T22:28:01.928Z,101463.31
2023-04-30T22:30:58.992Z,101471.94
2023-04-30T22:33:52.316Z,101471.89
2023-04-30T22:36:46.456Z,101475.84
2023-04-30T22:39:36.928Z,101478.45
2023-04-30T22:42:27.754Z,101475.79
2023-04-30T22:45:18.209Z,101474.69
2023-04-30T22:48:09.921Z,101477.64
2023-04-30T22:51:00.720Z,101474.23
2023-04-30T22:53:51.286Z,101473.58
2023-04-30T22:56:41.610Z,101475.33
2023-04-30T22:59:31.887Z,101474.92
2023-04-30T23:02:26.437Z,101473.17
2023-04-30T23:05:17.467Z,101470.23
2023-04-30T23:08:32.695Z,101475.02
2023-04-30T23:11:28.112Z,101478.05
2023-04-30T23:18:07.238Z,101475.92
2023-04-30T23:20:59.043Z,101475.23
2023-04-30T23:23:49.775Z,101474.73
2023-04-30T23:26:40.503Z,101475.24
2023-04-30T23:29:30.976Z,101476.69
2023-04-30T23:32:21.343Z,101475.17
2023-04-30T23:35:14.806Z,101474.00
2023-04-30T23:38:05.032Z,101471.83
2023-04-30T23:40:56.593Z,101471.48
2023-04-30T23:43:46.898Z,101473.85
2023-04-30T23:46:37.357Z,101475.09
2023-04-30T23:49:27.702Z,101478.71
2023-04-30T23:52:23.843Z,101481.29
2023-04-30T23:55:14.153Z,101480.45
2023-04-30T23:58:06.804Z,101480.65
